createdAt,value
2022-08-18T00:01:37.159Z,101319.94
2022-08-18T00:04:24.249Z,101313.94
2022-08-18T00:07:07.148Z,101317.88
2022-08-18T00:09:41.072Z,101320.53
2022-08-18T00:12:17.136Z,101314.28
2022-08-18T00:14:49.910Z,101319.44
2022-08-18T00:17:25.134Z,101315.09
2022-08-18T00:19:57.844Z,101321.84
2022-08-18T00:22:30.672Z,101312.31
2022-08-18T00:25:03.650Z,101310.44
2022-08-18T00:27:38.004Z,101300.06
2022-08-18T00:30:14.278Z,101291.19
2022-08-18T00:32:53.003Z,101295.59
2022-08-18T00:35:28.974Z,101300.78
2022-08-18T00:38:04.829Z,101300.63
2022-08-18T00:40:41.056Z,101306.06
2022-08-18T00:43:19.779Z,101302.22
2022-08-18T00:45:52.752Z,101307.50
2022-08-18T00:48:26.734Z,101319.94
2022-08-18T00:51:04.349Z,101315.94
2022-08-18T00:53:43.983Z,101319.84
2022-08-18T00:56:22.341Z,101320.66
2022-08-18T00:59:00.873Z,101311.78
2022-08-18T01:01:34.760Z,101311.91
2022-08-18T01:04:13.648Z,101312.66
2022-08-18T01:06:52.386Z,101308.56
2022-08-18T01:09:25.762Z,101302.94
2022-08-18T01:11:58.645Z,101307.09
2022-08-18T01:14:31.741Z,101306.72
2022-08-18T01:17:21.704Z,101308.84
2022-08-18T01:20:13.937Z,101309.53
2022-08-18T01:23:05.592Z,101310.34
2022-08-18T01:25:56.690Z,101298.06
2022-08-18T01:28:30.455Z,101286.56
2022-08-18T01:31:04.199Z,101283.22
2022-08-18T01:33:39.053Z,101286.50
2022-08-18T01:36:16.740Z,101292.06
2022-08-18T01:38:53.999Z,101294.84
2022-08-18T01:41:30.671Z,101291.94
2022-08-18T01:44:05.178Z,101298.50
2022-08-18T01:46:41.256Z,101302.56
2022-08-18T01:49:14.472Z,101313.75
2022-08-18T01:51:48.523Z,101303.34
2022-08-18T01:54:23.028Z,101309.69
2022-08-18T01:56:55.862Z,101318.50
2022-08-18T01:59:28.569Z,101316.94
2022-08-18T02:02:01.813Z,101316.84
2022-08-18T02:04:36.968Z,101317.75
2022-08-18T02:07:12.527Z,101315.50
2022-08-18T02:09:46.800Z,101313.88
2022-08-18T02:12:23.981Z,101322.25
2022-08-18T02:14:57.139Z,101322.41
2022-08-18T02:17:30.124Z,101314.63
2022-08-18T02:20:02.731Z,101315.84
2022-08-18T02:22:37.269Z,101316.31
2022-08-18T02:25:12.203Z,101317.50
2022-08-18T02:27:45.909Z,101312.84
2022-08-18T02:30:19.670Z,101310.75
2022-08-18T02:32:52.519Z,101309.63
2022-08-18T02:35:25.592Z,101319.53
2022-08-18T02:38:00.070Z,101315.75
2022-08-18T02:40:35.562Z,101320.81
2022-08-18T02:43:11.002Z,101327.00
2022-08-18T02:45:43.776Z,101323.72
2022-08-18T02:48:16.631Z,101327.00
2022-08-18T02:50:49.456Z,101320.00
2022-08-18T02:53:23.062Z,101322.66
2022-08-18T02:56:05.027Z,101319.91
2022-08-18T02:58:37.731Z,101332.78
2022-08-18T03:01:10.942Z,101333.56
2022-08-18T03:03:43.758Z,101336.78
2022-08-18T03:06:16.662Z,101340.66
2022-08-18T03:08:50.416Z,101341.97
2022-08-18T03:11:27.950Z,101332.00
2022-08-18T03:14:01.274Z,101333.59
2022-08-18T03:16:36.227Z,101344.34
2022-08-18T03:19:09.021Z,101337.13
2022-08-18T03:21:41.735Z,101336.34
2022-08-18T03:24:22.867Z,101336.78
2022-08-18T03:26:58.395Z,101339.16
2022-08-18T03:29:32.948Z,101339.47
2022-08-18T03:32:08.653Z,101337.59
2022-08-18T03:34:43.174Z,101328.13
2022-08-18T03:37:17.370Z,101336.50
2022-08-18T03:39:51.830Z,101335.31
2022-08-18T03:42:26.056Z,101347.84
2022-08-18T03:44:58.980Z,101334.38
2022-08-18T03:47:31.948Z,101341.50
2022-08-18T03:50:05.552Z,101356.72
2022-08-18T03:52:41.778Z,101351.59
2022-08-18T03:55:14.856Z,101345.53
2022-08-18T03:57:48.919Z,101339.97
2022-08-18T04:00:21.920Z,101338.78
2022-08-18T04:02:54.444Z,101339.97
2022-08-18T04:05:28.664Z,101338.69
2022-08-18T04:08:02.588Z,101336.31
2022-08-18T04:10:36.251Z,101338.25
2022-08-18T04:13:10.447Z,101342.25
2022-08-18T04:15:43.266Z,101333.53
2022-08-18T04:18:15.966Z,101330.34
2022-08-18T04:20:59.914Z,101336.63
2022-08-18T04:23:39.416Z,101333.41
2022-08-18T04:26:19.249Z,101337.03
2022-08-18T04:28:53.572Z,101338.69
2022-08-18T04:31:26.473Z,101337.03
2022-08-18T04:34:00.940Z,101325.56
2022-08-18T04:36:37.208Z,101321.59
2022-08-18T04:39:12.130Z,101325.16
2022-08-18T04:41:45.026Z,101322.38
2022-08-18T04:44:19.232Z,101320.25
2022-08-18T04:46:54.530Z,101321.78
2022-08-18T04:49:27.563Z,101327.00
2022-08-18T04:52:38.362Z,101327.84
2022-08-18T04:55:11.862Z,101314.31
2022-08-18T04:57:45.403Z,101315.78
2022-08-18T05:00:19.604Z,101319.75
2022-08-18T05:02:54.590Z,101320.56
2022-08-18T05:05:27.574Z,101323.72
2022-08-18T05:08:00.087Z,101320.56
2022-08-18T05:10:33.079Z,101331.00
2022-08-18T05:13:06.538Z,101330.63
2022-08-18T05:16:07.133Z,101326.22
2022-08-18T05:18:38.598Z,101329.91
2022-08-18T05:21:14.308Z,101334.63
2022-08-18T05:23:49.087Z,101329.84
2022-08-18T05:26:25.825Z,101342.53
2022-08-18T05:29:17.614Z,101332.69
2022-08-18T05:31:54.400Z,101335.41
2022-08-18T05:34:27.209Z,101337.03
2022-08-18T05:37:11.655Z,101344.66
2022-08-18T05:39:56.551Z,101333.22
2022-08-18T05:42:36.832Z,101339.28
2022-08-18T05:45:12.795Z,101339.16
2022-08-18T05:47:48.258Z,101339.16
2022-08-18T05:50:22.471Z,101336.03
2022-08-18T05:52:57.936Z,101346.28
2022-08-18T05:55:52.568Z,101334.00
2022-08-18T05:58:33.506Z,101331.94
2022-08-18T06:01:15.883Z,101332.78
2022-08-18T06:03:54.378Z,101332.94
2022-08-18T06:06:29.592Z,101335.31
2022-08-18T06:09:11.988Z,101335.72
2022-08-18T06:11:44.728Z,101340.03
2022-08-18T06:14:17.574Z,101336.94
2022-08-18T06:17:03.349Z,101339.25
2022-08-18T06:19:50.527Z,101337.69
2022-08-18T06:22:33.919Z,101339.25
2022-08-18T06:25:15.703Z,101340.69
2022-08-18T06:27:56.597Z,101350.31
2022-08-18T06:30:48.208Z,101344.81
2022-08-18T06:33:38.511Z,101340.88
2022-08-18T06:36:21.736Z,101339.16
2022-08-18T06:39:04.515Z,101346.22
2022-08-18T06:41:42.708Z,101347.81
2022-08-18T06:44:24.461Z,101346.00
2022-08-18T06:47:04.518Z,101350.72
2022-08-18T06:49:46.675Z,101340.28
2022-08-18T06:52:26.884Z,101349.38
2022-08-18T06:55:02.261Z,101348.97
2022-08-18T06:57:38.305Z,101348.47
2022-08-18T07:00:24.011Z,101346.03
2022-08-18T07:03:01.844Z,101360.97
2022-08-18T07:05:37.257Z,101364.63
2022-08-18T07:08:18.778Z,101366.50
2022-08-18T07:10:53.551Z,101369.63
2022-08-18T07:13:30.241Z,101373.94
2022-08-18T07:16:30.133Z,101373.59
2022-08-18T07:19:12.469Z,101377.50
2022-08-18T07:21:45.669Z,101375.50
2022-08-18T07:24:26.391Z,101379.03
2022-08-18T07:27:03.585Z,101378.22
2022-08-18T07:29:39.103Z,101380.19
2022-08-18T07:32:15.962Z,101381.66
2022-08-18T07:34:58.211Z,101382.03
2022-08-18T07:37:36.236Z,101388.09
2022-08-18T07:40:20.632Z,101389.88
2022-08-18T07:43:01.807Z,101395.09
2022-08-18T07:45:41.131Z,101396.69
2022-08-18T07:51:20.947Z,101402.94
2022-08-18T07:53:58.114Z,101403.72
2022-08-18T07:56:38.863Z,101412.31
2022-08-18T07:59:17.894Z,101406.03
2022-08-18T08:01:56.461Z,101411.25
2022-08-18T08:04:37.508Z,101410.38
2022-08-18T08:07:24.308Z,101410.31
2022-08-18T08:10:11.982Z,101411.53
2022-08-18T08:13:06.068Z,101418.25
2022-08-18T08:15:50.325Z,101408.75
2022-08-18T08:18:35.333Z,101406.75
2022-08-18T08:21:12.858Z,101407.44
2022-08-18T08:23:53.192Z,101405.75
2022-08-18T08:26:43.199Z,101399.38
2022-08-18T08:29:30.287Z,101405.31
2022-08-18T08:32:05.258Z,101402.66
2022-08-18T08:34:43.761Z,101404.13
2022-08-18T08:37:21.938Z,101392.31
2022-08-18T08:40:00.329Z,101396.56
2022-08-18T08:42:42.278Z,101395.50
2022-08-18T08:45:22.161Z,101397.28
2022-08-18T08:48:08.510Z,101405.50
2022-08-18T08:50:46.107Z,101399.31
2022-08-18T08:53:24.489Z,101396.16
2022-08-18T08:56:02.933Z,101399.91
2022-08-18T08:58:42.255Z,101397.66
2022-08-18T09:01:25.494Z,101404.03
2022-08-18T09:04:07.254Z,101398.25
2022-08-18T09:06:52.361Z,101395.19
2022-08-18T09:09:56.521Z,101401.06
2022-08-18T09:12:44.746Z,101405.22
2022-08-18T09:15:26.918Z,101403.63
2022-08-18T09:18:34.996Z,101399.53
2022-08-18T09:21:22.292Z,101402.47
2022-08-18T09:24:05.801Z,101407.97
2022-08-18T09:26:50.152Z,101399.00
2022-08-18T09:29:27.326Z,101409.56
2022-08-18T09:32:36.397Z,101410.34
2022-08-18T09:35:38.821Z,101399.50
2022-08-18T09:38:34.101Z,101401.06
2022-08-18T09:41:31.271Z,101403.63
2022-08-18T09:47:06.284Z,101405.88
2022-08-18T09:52:53.751Z,101403.97
2022-08-18T09:55:59.311Z,101409.66
2022-08-18T09:58:58.739Z,101401.38
2022-08-18T10:01:42.340Z,101399.78
2022-08-18T10:04:31.010Z,101395.41
2022-08-18T10:07:17.576Z,101392.97
2022-08-18T10:13:11.161Z,101392.38
2022-08-18T10:15:53.576Z,101391.13
2022-08-18T10:18:41.455Z,101397.09
2022-08-18T10:24:35.315Z,101393.25
2022-08-18T10:27:36.740Z,101388.41
2022-08-18T10:31:06.257Z,101390.31
2022-08-18T10:34:01.670Z,101387.28
2022-08-18T10:36:40.170Z,101392.47
2022-08-18T10:39:18.296Z,101380.69
2022-08-18T10:42:03.696Z,101382.31
2022-08-18T10:44:43.563Z,101374.00
2022-08-18T10:47:25.667Z,101383.56
2022-08-18T10:50:10.398Z,101383.25
2022-08-18T10:53:40.420Z,101394.53
2022-08-18T10:56:05.329Z,101398.53
2022-08-18T10:58:59.467Z,101399.03
2022-08-18T11:01:55.631Z,101394.13
2022-08-18T11:04:33.246Z,101399.47
2022-08-18T11:07:11.785Z,101398.69
2022-08-18T11:12:56.238Z,101388.28
2022-08-18T11:15:42.394Z,101384.06
2022-08-18T11:18:30.204Z,101384.56
2022-08-18T11:21:42.045Z,101383.06
2022-08-18T11:24:21.004Z,101379.28
2022-08-18T11:26:56.167Z,101386.47
2022-08-18T11:29:32.649Z,101380.84
2022-08-18T11:32:11.473Z,101388.66
2022-08-18T11:34:53.128Z,101377.22
2022-08-18T11:37:49.067Z,101378.69
2022-08-18T11:43:39.116Z,101365.16
2022-08-18T11:46:29.635Z,101362.50
2022-08-18T11:49:17.353Z,101371.53
2022-08-18T11:52:03.470Z,101362.25
2022-08-18T11:54:50.943Z,101356.38
2022-08-18T12:00:42.990Z,101344.66
2022-08-18T12:03:24.041Z,101339.19
2022-08-18T12:05:59.906Z,101340.38
2022-08-18T12:11:33.742Z,101346.38
2022-08-18T12:14:30.540Z,101339.63
2022-08-18T12:17:05.349Z,101331.81
2022-08-18T12:19:39.313Z,101324.13
2022-08-18T12:22:17.501Z,101321.41
2022-08-18T12:24:53.017Z,101325.50
2022-08-18T12:27:31.887Z,101325.34
2022-08-18T12:30:07.080Z,101325.13
2022-08-18T12:32:55.740Z,101323.56
2022-08-18T12:35:29.512Z,101311.75
2022-08-18T12:38:12.336Z,101322.38
2022-08-18T12:40:48.246Z,101316.16
2022-08-18T12:43:21.483Z,101322.88
2022-08-18T12:45:54.664Z,101320.72
2022-08-18T12:48:29.915Z,101327.44
2022-08-18T12:51:05.809Z,101320.13
2022-08-18T12:53:58.286Z,101322.94
2022-08-18T12:56:33.963Z,101333.16
2022-08-18T12:59:10.796Z,101328.84
2022-08-18T13:01:43.922Z,101340.47
2022-08-18T13:04:18.607Z,101337.88
2022-08-18T13:07:00.167Z,101346.31
2022-08-18T13:09:52.664Z,101349.91
2022-08-18T13:12:28.158Z,101354.91
2022-08-18T13:15:01.662Z,101351.63
2022-08-18T13:17:41.506Z,101350.84
2022-08-18T13:20:18.111Z,101358.19
2022-08-18T13:22:50.807Z,101354.69
2022-08-18T13:25:32.495Z,101360.31
2022-08-18T13:28:12.509Z,101357.31
2022-08-18T13:30:46.680Z,101365.66
2022-08-18T13:33:53.614Z,101379.69
2022-08-18T13:36:12.005Z,101385.63
2022-08-18T13:38:44.944Z,101389.06
2022-08-18T13:41:18.086Z,101391.28
2022-08-18T13:43:57.485Z,101387.91
2022-08-18T13:46:31.920Z,101402.94
2022-08-18T13:49:04.623Z,101387.88
2022-08-18T13:51:37.494Z,101385.69
2022-08-18T13:54:30.463Z,101389.31
2022-08-18T13:57:05.266Z,101388.31
2022-08-18T13:59:46.456Z,101400.78
2022-08-18T14:02:19.669Z,101392.47
2022-08-18T14:04:59.699Z,101389.16
2022-08-18T14:07:32.789Z,101399.91
2022-08-18T14:10:10.702Z,101407.19
2022-08-18T14:12:47.139Z,101399.16
2022-08-18T14:15:24.483Z,101398.97
2022-08-18T14:17:57.196Z,101393.47
2022-08-18T14:20:49.498Z,101392.66
2022-08-18T14:23:51.438Z,101388.66
2022-08-18T14:26:43.404Z,101383.44
2022-08-18T14:29:16.932Z,101387.88
2022-08-18T14:31:52.306Z,101382.47
2022-08-18T14:34:26.916Z,101382.22
2022-08-18T14:37:01.287Z,101374.69
2022-08-18T14:39:34.534Z,101374.13
2022-08-18T14:42:08.330Z,101377.66
2022-08-18T14:44:45.968Z,101379.31
2022-08-18T14:47:24.455Z,101381.31
2022-08-18T14:49:58.141Z,101387.25
2022-08-18T14:52:30.807Z,101383.06
2022-08-18T14:55:04.134Z,101384.22
2022-08-18T14:57:37.278Z,101380.53
2022-08-18T15:00:14.320Z,101372.66
2022-08-18T15:02:50.259Z,101385.50
2022-08-18T15:05:25.035Z,101368.28
2022-08-18T15:07:58.792Z,101374.53
2022-08-18T15:10:33.117Z,101364.97
2022-08-18T15:13:05.917Z,101359.47
2022-08-18T15:15:50.615Z,101363.94
2022-08-18T15:18:26.579Z,101356.84
2022-08-18T15:21:34.253Z,101355.91
2022-08-18T15:24:26.697Z,101363.69
2022-08-18T15:27:05.940Z,101361.91
2022-08-18T15:29:41.567Z,101367.06
2022-08-18T15:32:17.764Z,101366.84
2022-08-18T15:34:51.943Z,101362.88
2022-08-18T15:37:24.793Z,101357.16
2022-08-18T15:40:05.216Z,101355.84
2022-08-18T15:42:38.383Z,101352.81
2022-08-18T15:45:15.824Z,101354.69
2022-08-18T15:47:48.985Z,101355.84
2022-08-18T15:50:26.122Z,101358.81
2022-08-18T15:53:03.772Z,101354.78
2022-08-18T15:55:41.721Z,101362.47
2022-08-18T15:58:22.090Z,101358.81
2022-08-18T16:00:55.170Z,101347.34
2022-08-18T16:03:28.847Z,101353.50
2022-08-18T16:06:03.344Z,101344.47
2022-08-18T16:08:36.062Z,101345.81
2022-08-18T16:11:10.538Z,101344.03
2022-08-18T16:13:52.692Z,101337.22
2022-08-18T16:16:29.216Z,101342.72
2022-08-18T16:19:09.066Z,101340.63
2022-08-18T16:21:43.186Z,101339.31
2022-08-18T16:24:18.241Z,101334.94
2022-08-18T16:26:51.947Z,101330.84
2022-08-18T16:29:25.074Z,101330.19
2022-08-18T16:31:57.752Z,101333.00
2022-08-18T16:34:31.034Z,101328.13
2022-08-18T16:37:05.228Z,101328.03
2022-08-18T16:39:38.119Z,101327.25
2022-08-18T16:42:10.834Z,101320.28
2022-08-18T16:44:43.783Z,101328.25
2022-08-18T16:47:18.485Z,101322.38
2022-08-18T16:49:51.242Z,101329.94
2022-08-18T16:52:25.259Z,101321.91
2022-08-18T16:54:58.256Z,101319.16
2022-08-18T16:57:53.743Z,101316.94
2022-08-18T17:00:54.553Z,101314.47
2022-08-18T17:03:45.744Z,101317.66
2022-08-18T17:06:20.871Z,101311.06
2022-08-18T17:08:55.658Z,101300.94
2022-08-18T17:11:29.066Z,101305.66
2022-08-18T17:14:02.271Z,101303.53
2022-08-18T17:16:36.289Z,101300.13
2022-08-18T17:19:09.528Z,101305.41
2022-08-18T17:21:43.117Z,101309.97
2022-08-18T17:24:19.778Z,101303.06
2022-08-18T17:27:19.217Z,101296.56
2022-08-18T17:30:03.825Z,101302.13
2022-08-18T17:32:41.738Z,101302.63
2022-08-18T17:35:28.655Z,101295.31
2022-08-18T17:38:06.724Z,101300.91
2022-08-18T17:40:45.161Z,101301.25
2022-08-18T17:43:21.167Z,101294.50
2022-08-18T17:45:57.686Z,101296.66
2022-08-18T17:48:35.773Z,101298.31
2022-08-18T17:51:26.884Z,101299.06
2022-08-18T17:54:01.381Z,101295.97
2022-08-18T17:56:43.460Z,101298.19
2022-08-18T17:59:45.485Z,101299.81
2022-08-18T18:02:28.719Z,101301.44
2022-08-18T18:05:07.508Z,101300.81
2022-08-18T18:07:54.728Z,101308.38
2022-08-18T18:10:47.026Z,101305.63
2022-08-18T18:13:32.695Z,101302.41
2022-08-18T18:16:24.532Z,101302.00
2022-08-18T18:19:01.845Z,101299.22
2022-08-18T18:22:00.771Z,101303.47
2022-08-18T18:24:33.145Z,101293.34
2022-08-18T18:27:32.477Z,101297.59
2022-08-18T18:30:27.899Z,101293.13
2022-08-18T18:33:05.770Z,101286.25
2022-08-18T18:35:54.939Z,101287.72
2022-08-18T18:38:30.701Z,101294.28
2022-08-18T18:41:07.781Z,101295.75
2022-08-18T18:43:43.570Z,101296.88
2022-08-18T18:46:32.096Z,101304.06
2022-08-18T18:49:16.535Z,101298.91
2022-08-18T18:52:02.215Z,101294.13
2022-08-18T18:54:50.195Z,101297.72
2022-08-18T18:57:34.038Z,101298.19
2022-08-18T19:00:19.961Z,101292.25
2022-08-18T19:03:04.486Z,101292.41
2022-08-18T19:05:46.515Z,101288.38
2022-08-18T19:08:31.116Z,101288.69
2022-08-18T19:11:15.826Z,101288.03
2022-08-18T19:13:55.283Z,101286.81
2022-08-18T19:16:31.897Z,101288.81
2022-08-18T19:19:37.454Z,101292.41
2022-08-18T19:22:15.948Z,101296.16
2022-08-18T19:24:56.866Z,101288.94
2022-08-18T19:27:36.277Z,101292.41
2022-08-18T19:30:14.279Z,101298.63
2022-08-18T19:32:50.539Z,101295.50
2022-08-18T19:35:35.375Z,101302.66
2022-08-18T19:38:21.251Z,101301.03
2022-08-18T19:41:00.387Z,101299.31
2022-08-18T19:43:38.791Z,101293.19
2022-08-18T19:46:19.745Z,101293.03
2022-08-18T19:49:00.753Z,101298.94
2022-08-18T19:51:37.725Z,101300.97
2022-08-18T19:54:36.785Z,101305.75
2022-08-18T19:57:23.647Z,101305.56
2022-08-18T20:00:14.595Z,101303.03
2022-08-18T20:03:07.925Z,101296.19
2022-08-18T20:05:45.620Z,101297.09
2022-08-18T20:08:39.303Z,101301.47
2022-08-18T20:11:41.968Z,101309.56
2022-08-18T20:14:18.889Z,101297.16
2022-08-18T20:17:16.822Z,101301.81
2022-08-18T20:20:15.701Z,101306.78
2022-08-18T20:22:55.169Z,101300.84
2022-08-18T20:25:46.330Z,101304.69
2022-08-18T20:28:33.457Z,101295.47
2022-08-18T20:31:17.604Z,101293.34
2022-08-18T20:34:14.195Z,101299.22
2022-08-18T20:36:48.907Z,101299.22
2022-08-18T20:39:36.188Z,101298.59
2022-08-18T20:42:46.870Z,101298.59
2022-08-18T20:45:34.747Z,101299.63
2022-08-18T20:48:19.121Z,101293.56
2022-08-18T20:51:03.245Z,101295.72
2022-08-18T20:53:52.326Z,101289.19
2022-08-18T20:56:43.117Z,101295.28
2022-08-18T20:59:21.347Z,101287.69
2022-08-18T21:01:57.610Z,101283.94
2022-08-18T21:04:48.264Z,101287.28
2022-08-18T21:07:36.253Z,101282.63
2022-08-18T21:10:18.908Z,101282.84
2022-08-18T21:12:55.280Z,101277.81
2022-08-18T21:15:31.712Z,101281.41
2022-08-18T21:18:07.309Z,101289.03
2022-08-18T21:20:40.490Z,101288.81
2022-08-18T21:23:15.370Z,101286.13
2022-08-18T21:25:52.655Z,101283.00
2022-08-18T21:28:28.875Z,101278.63
2022-08-18T21:31:42.965Z,101272.59
2022-08-18T21:34:30.053Z,101270.03
2022-08-18T21:37:08.377Z,101275.41
2022-08-18T21:39:53.107Z,101269.91
2022-08-18T21:42:29.408Z,101273.75
2022-08-18T21:45:02.221Z,101277.88
2022-08-18T21:47:36.402Z,101288.06
2022-08-18T21:50:12.473Z,101274.97
2022-08-18T21:52:52.395Z,101278.78
2022-08-18T21:55:31.625Z,101286.16
2022-08-18T21:58:17.677Z,101289.84
2022-08-18T22:01:11.944Z,101296.66
2022-08-18T22:03:54.984Z,101296.78
2022-08-18T22:06:40.821Z,101295.75
2022-08-18T22:09:37.402Z,101302.59
2022-08-18T22:12:42.686Z,101301.88
2022-08-18T22:15:19.260Z,101299.97
2022-08-18T22:17:56.376Z,101308.47
2022-08-18T22:20:46.187Z,101305.78
2022-08-18T22:23:43.558Z,101306.31
2022-08-18T22:26:22.264Z,101303.72
2022-08-18T22:28:59.539Z,101306.66
2022-08-18T22:31:34.355Z,101306.66
2022-08-18T22:34:09.151Z,101303.53
2022-08-18T22:36:47.134Z,101304.50
2022-08-18T22:39:25.712Z,101308.53
2022-08-18T22:41:59.685Z,101302.94
2022-08-18T22:44:33.029Z,101310.19
2022-08-18T22:47:06.433Z,101321.03
2022-08-18T22:49:39.948Z,101316.75
2022-08-18T22:52:19.971Z,101319.22
2022-08-18T22:54:53.584Z,101317.66
2022-08-18T22:57:26.685Z,101312.91
2022-08-18T22:59:59.806Z,101309.00
2022-08-18T23:02:33.072Z,101304.31
2022-08-18T23:05:07.061Z,101309.97
2022-08-18T23:07:41.307Z,101307.63
2022-08-18T23:10:16.484Z,101303.72
2022-08-18T23:12:50.149Z,101297.44
2022-08-18T23:15:38.488Z,101299.88
2022-08-18T23:18:11.427Z,101305.19
2022-08-18T23:20:45.318Z,101294.66
2022-08-18T23:23:21.823Z,101299.34
2022-08-18T23:28:28.082Z,101297.13
2022-08-18T23:31:01.265Z,101294.75
2022-08-18T23:33:34.556Z,101296.41
2022-08-18T23:36:07.668Z,101300.44
2022-08-18T23:38:42.488Z,101302.88
2022-08-18T23:41:16.365Z,101302.53
2022-08-18T23:43:49.485Z,101295.81
2022-08-18T23:46:28.529Z,101305.31
2022-08-18T23:49:03.852Z,101306.19
2022-08-18T23:51:39.098Z,101305.84
2022-08-18T23:54:15.572Z,101307.94
2022-08-18T23:56:49.034Z,101301.69
2022-08-18T23:59:24.085Z,101303.25
